sensor_id;sensor_type;location;lat;lon;timestamp;pressure;altitude;pressure_sealevel;temperature;humidity
44103;BME280;29769;42.178;24.742;2022-07-10T00:01:50;99262.84;;;19.36;100.00
44103;BME280;29769;42.178;24.742;2022-07-10T00:04:35;99264.19;;;19.29;100.00
44103;BME280;29769;42.178;24.742;2022-07-10T00:07:19;99253.78;;;19.24;100.00
44103;BME280;29769;42.178;24.742;2022-07-10T00:10:04;99254.72;;;19.23;100.00
44103;BME280;29769;42.178;24.742;2022-07-10T00:12:51;99259.44;;;19.18;100.00
44103;BME280;29769;42.178;24.742;2022-07-10T00:15:36;99255.84;;;19.19;100.00
44103;BME280;29769;42.178;24.742;2022-07-10T00:18:20;99257.72;;;19.17;100.00
44103;BME280;29769;42.178;24.742;2022-07-10T00:21:05;99262.38;;;19.14;100.00
44103;BME280;29769;42.178;24.742;2022-07-10T00:23:50;99257.91;;;19.14;100.00
44103;BME280;29769;42.178;24.742;2022-07-10T00:26:34;99241.97;;;19.13;100.00
44103;BME280;29769;42.178;24.742;2022-07-10T00:29:19;99248.09;;;19.15;100.00
44103;BME280;29769;42.178;24.742;2022-07-10T00:32:03;99244.50;;;19.16;100.00
44103;BME280;29769;42.178;24.742;2022-07-10T00:34:48;99244.50;;;19.16;100.00
44103;BME280;29769;42.178;24.742;2022-07-10T00:37:32;99233.91;;;19.14;100.00
44103;BME280;29769;42.178;24.742;2022-07-10T00:40:17;99236.50;;;19.16;100.00
44103;BME280;29769;42.178;24.742;2022-07-10T00:43:02;99239.06;;;19.17;100.00
44103;BME280;29769;42.178;24.742;2022-07-10T00:45:48;99233.72;;;19.17;100.00
44103;BME280;29769;42.178;24.742;2022-07-10T00:48:32;99233.66;;;19.19;100.00
44103;BME280;29769;42.178;24.742;2022-07-10T00:51:17;99229.19;;;19.19;100.00
44103;BME280;29769;42.178;24.742;2022-07-10T00:54:02;99214.03;;;19.20;100.00
44103;BME280;29769;42.178;24.742;2022-07-10T00:56:49;99241.56;;;19.20;100.00
44103;BME280;29769;42.178;24.742;2022-07-10T00:59:34;99214.78;;;19.22;100.00
44103;BME280;29769;42.178;24.742;2022-07-10T01:02:19;99214.63;;;19.25;100.00
44103;BME280;29769;42.178;24.742;2022-07-10T01:05:04;99216.25;;;19.27;100.00
44103;BME280;29769;42.178;24.742;2022-07-10T01:07:49;99215.31;;;19.28;100.00
44103;BME280;29769;42.178;24.742;2022-07-10T01:10:33;99203.50;;;19.32;100.00
44103;BME280;29769;42.178;24.742;2022-07-10T01:13:18;99208.66;;;19.35;100.00
44103;BME280;29769;42.178;24.742;2022-07-10T01:16:03;99212.03;;;19.39;100.00
44103;BME280;29769;42.178;24.742;2022-07-10T01:18:47;99209.16;;;19.42;100.00
44103;BME280;29769;42.178;24.742;2022-07-10T01:21:33;99219.84;;;19.42;100.00
44103;BME280;29769;42.178;24.742;2022-07-10T01:24:17;99223.44;;;19.41;100.00
44103;BME280;29769;42.178;24.742;2022-07-10T01:27:02;99222.50;;;19.42;100.00
44103;BME280;29769;42.178;24.742;2022-07-10T01:29:46;99211.78;;;19.43;100.00
44103;BME280;29769;42.178;24.742;2022-07-10T01:32:38;99224.16;;;19.44;100.00
44103;BME280;29769;42.178;24.742;2022-07-10T01:35:23;99205.47;;;19.44;100.00
44103;BME280;29769;42.178;24.742;2022-07-10T01:38:08;99210.91;;;19.43;100.00
44103;BME280;29769;42.178;24.742;2022-07-10T01:40:54;99212.78;;;19.41;100.00
44103;BME280;29769;42.178;24.742;2022-07-10T01:43:39;99207.63;;;19.38;100.00
44103;BME280;29769;42.178;24.742;2022-07-10T01:46:29;99199.13;;;19.31;100.00
44103;BME280;29769;42.178;24.742;2022-07-10T01:49:13;99192.94;;;19.31;100.00
44103;BME280;29769;42.178;24.742;2022-07-10T01:51:58;99180.06;;;19.23;100.00
44103;BME280;29769;42.178;24.742;2022-07-10T01:54:43;99173.25;;;19.18;100.00
44103;BME280;29769;42.178;24.742;2022-07-10T01:57:27;99160.31;;;19.12;100.00
44103;BME280;29769;42.178;24.742;2022-07-10T02:00:12;99166.78;;;19.07;100.00
44103;BME280;29769;42.178;24.742;2022-07-10T02:02:57;99170.66;;;19.02;100.00
44103;BME280;29769;42.178;24.742;2022-07-10T02:06:00;99187.56;;;19.01;100.00
44103;BME280;29769;42.178;24.742;2022-07-10T02:08:45;99184.25;;;18.97;100.00
44103;BME280;29769;42.178;24.742;2022-07-10T02:11:29;99174.72;;;18.93;100.00
44103;BME280;29769;42.178;24.742;2022-07-10T02:14:13;99178.56;;;18.88;100.00
44103;BME280;29769;42.178;24.742;2022-07-10T02:16:58;99180.38;;;18.87;100.00
44103;BME280;29769;42.178;24.742;2022-07-10T02:19:43;99172.63;;;18.83;100.00
44103;BME280;29769;42.178;24.742;2022-07-10T02:22:27;99157.00;;;18.77;100.00
44103;BME280;29769;42.178;24.742;2022-07-10T02:25:12;99166.38;;;18.68;100.00
44103;BME280;29769;42.178;24.742;2022-07-10T02:27:56;99168.53;;;18.61;100.00
44103;BME280;29769;42.178;24.742;2022-07-10T02:30:41;99176.88;;;18.55;100.00
44103;BME280;29769;42.178;24.742;2022-07-10T02:33:26;99170.03;;;18.50;100.00
44103;BME280;29769;42.178;24.742;2022-07-10T02:36:10;99188.94;;;18.45;100.00
44103;BME280;29769;42.178;24.742;2022-07-10T02:38:55;99177.53;;;18.43;100.00
44103;BME280;29769;42.178;24.742;2022-07-10T02:41:39;99187.56;;;18.38;100.00
44103;BME280;29769;42.178;24.742;2022-07-10T02:44:25;99185.03;;;18.35;100.00
44103;BME280;29769;42.178;24.742;2022-07-10T02:47:10;99180.84;;;18.31;100.00
44103;BME280;29769;42.178;24.742;2022-07-10T02:49:55;99195.94;;;18.31;100.00
44103;BME280;29769;42.178;24.742;2022-07-10T02:52:39;99183.75;;;18.27;100.00
44103;BME280;29769;42.178;24.742;2022-07-10T02:55:24;99195.19;;;18.29;100.00
44103;BME280;29769;42.178;24.742;2022-07-10T02:58:08;99194.56;;;18.23;100.00
44103;BME280;29769;42.178;24.742;2022-07-10T03:00:53;99193.88;;;18.20;100.00
44103;BME280;29769;42.178;24.742;2022-07-10T03:03:38;99209.25;;;18.15;100.00
44103;BME280;29769;42.178;24.742;2022-07-10T03:06:22;99205.91;;;18.11;100.00
44103;BME280;29769;42.178;24.742;2022-07-10T03:09:08;99213.94;;;18.10;100.00
44103;BME280;29769;42.178;24.742;2022-07-10T03:11:52;99201.75;;;18.06;100.00
44103;BME280;29769;42.178;24.742;2022-07-10T03:14:37;99196.34;;;18.07;100.00
44103;BME280;29769;42.178;24.742;2022-07-10T03:17:21;99205.22;;;18.08;100.00
44103;BME280;29769;42.178;24.742;2022-07-10T03:20:06;99221.19;;;18.08;100.00
44103;BME280;29769;42.178;24.742;2022-07-10T03:22:51;99206.91;;;18.09;100.00
44103;BME280;29769;42.178;24.742;2022-07-10T03:25:36;99205.91;;;18.11;100.00
44103;BME280;29769;42.178;24.742;2022-07-10T03:28:20;99198.66;;;18.13;100.00
44103;BME280;29769;42.178;24.742;2022-07-10T03:31:05;99202.19;;;18.14;100.00
44103;BME280;29769;42.178;24.742;2022-07-10T03:33:49;99194.22;;;18.14;100.00
44103;BME280;29769;42.178;24.742;2022-07-10T03:36:34;99196.88;;;18.14;100.00
44103;BME280;29769;42.178;24.742;2022-07-10T03:39:19;99187.00;;;18.16;100.00
44103;BME280;29769;42.178;24.742;2022-07-10T03:42:03;99169.13;;;18.18;100.00
44103;BME280;29769;42.178;24.742;2022-07-10T03:44:48;99178.69;;;18.22;100.00
44103;BME280;29769;42.178;24.742;2022-07-10T03:47:32;99177.56;;;18.26;100.00
44103;BME280;29769;42.178;24.742;2022-07-10T03:50:17;99180.16;;;18.28;100.00
44103;BME280;29769;42.178;24.742;2022-07-10T03:53:01;99176.38;;;18.32;100.00
44103;BME280;29769;42.178;24.742;2022-07-10T03:55:47;99184.22;;;18.35;100.00
44103;BME280;29769;42.178;24.742;2022-07-10T03:58:31;99175.19;;;18.37;100.00
44103;BME280;29769;42.178;24.742;2022-07-10T04:01:16;99176.81;;;18.40;100.00
44103;BME280;29769;42.178;24.742;2022-07-10T04:04:03;99183.84;;;18.41;100.00
44103;BME280;29769;42.178;24.742;2022-07-10T04:06:47;99178.53;;;18.41;100.00
44103;BME280;29769;42.178;24.742;2022-07-10T04:09:32;99180.88;;;18.47;100.00
44103;BME280;29769;42.178;24.742;2022-07-10T04:12:17;99186.81;;;18.52;100.00
44103;BME280;29769;42.178;24.742;2022-07-10T04:15:02;99188.38;;;18.56;100.00
44103;BME280;29769;42.178;24.742;2022-07-10T04:17:47;99179.34;;;18.58;100.00
44103;BME280;29769;42.178;24.742;2022-07-10T04:20:32;99151.59;;;18.62;100.00
44103;BME280;29769;42.178;24.742;2022-07-10T04:23:16;99154.84;;;18.67;100.00
44103;BME280;29769;42.178;24.742;2022-07-10T04:26:01;99170.56;;;18.72;100.00
44103;BME280;29769;42.178;24.742;2022-07-10T04:28:45;99171.97;;;18.79;100.00
44103;BME280;29769;42.178;24.742;2022-07-10T04:31:30;99174.38;;;18.84;100.00
44103;BME280;29769;42.178;24.742;2022-07-10T04:34:14;99177.03;;;18.84;100.00
44103;BME280;29769;42.178;24.742;2022-07-10T04:36:58;99169.72;;;18.87;100.00
44103;BME280;29769;42.178;24.742;2022-07-10T04:39:43;99171.44;;;18.88;100.00
44103;BME280;29769;42.178;24.742;2022-07-10T04:42:27;99165.44;;;18.85;100.00
44103;BME280;29769;42.178;24.742;2022-07-10T04:45:12;99179.69;;;18.84;100.00
44103;BME280;29769;42.178;24.742;2022-07-10T04:47:56;99184.91;;;18.85;100.00
44103;BME280;29769;42.178;24.742;2022-07-10T04:50:41;99177.63;;;18.89;100.00
44103;BME280;29769;42.178;24.742;2022-07-10T04:53:25;99184.56;;;18.91;100.00
44103;BME280;29769;42.178;24.742;2022-07-10T04:56:10;99179.06;;;18.94;100.00
44103;BME280;29769;42.178;24.742;2022-07-10T04:58:54;99186.72;;;19.00;100.00
44103;BME280;29769;42.178;24.742;2022-07-10T05:01:39;99201.69;;;19.03;100.00
44103;BME280;29769;42.178;24.742;2022-07-10T05:04:24;99196.50;;;19.16;100.00
44103;BME280;29769;42.178;24.742;2022-07-10T05:07:08;99201.63;;;19.34;100.00
44103;BME280;29769;42.178;24.742;2022-07-10T05:09:53;99210.38;;;19.52;100.00
44103;BME280;29769;42.178;24.742;2022-07-10T05:12:37;99194.31;;;19.68;100.00
44103;BME280;29769;42.178;24.742;2022-07-10T05:15:22;99202.84;;;19.88;100.00
44103;BME280;29769;42.178;24.742;2022-07-10T05:18:06;99179.19;;;19.96;100.00
44103;BME280;29769;42.178;24.742;2022-07-10T05:20:51;99203.22;;;19.96;100.00
44103;BME280;29769;42.178;24.742;2022-07-10T05:23:36;99183.09;;;20.05;100.00
44103;BME280;29769;42.178;24.742;2022-07-10T05:26:21;99174.91;;;20.08;100.00
44103;BME280;29769;42.178;24.742;2022-07-10T05:29:06;99204.47;;;20.19;100.00
44103;BME280;29769;42.178;24.742;2022-07-10T05:31:50;99193.16;;;20.30;100.00
44103;BME280;29769;42.178;24.742;2022-07-10T05:34:35;99184.66;;;20.52;100.00
44103;BME280;29769;42.178;24.742;2022-07-10T05:37:19;99187.31;;;20.52;100.00
44103;BME280;29769;42.178;24.742;2022-07-10T05:40:04;99196.56;;;20.60;100.00
44103;BME280;29769;42.178;24.742;2022-07-10T05:42:49;99188.47;;;20.62;100.00
44103;BME280;29769;42.178;24.742;2022-07-10T05:45:34;99186.50;;;20.78;100.00
44103;BME280;29769;42.178;24.742;2022-07-10T05:48:18;99179.28;;;20.66;100.00
44103;BME280;29769;42.178;24.742;2022-07-10T05:51:04;99202.63;;;20.76;100.00
44103;BME280;29769;42.178;24.742;2022-07-10T05:53:48;99182.22;;;21.16;99.83
44103;BME280;29769;42.178;24.742;2022-07-10T05:56:33;99195.72;;;21.27;99.40
44103;BME280;29769;42.178;24.742;2022-07-10T05:59:17;99190.69;;;21.36;97.83
44103;BME280;29769;42.178;24.742;2022-07-10T06:02:02;99190.91;;;21.33;97.52
44103;BME280;29769;42.178;24.742;2022-07-10T06:04:46;99191.06;;;21.44;96.92
44103;BME280;29769;42.178;24.742;2022-07-10T06:07:31;99201.88;;;21.55;96.27
44103;BME280;29769;42.178;24.742;2022-07-10T06:10:16;99200.78;;;21.45;96.94
44103;BME280;29769;42.178;24.742;2022-07-10T06:13:01;99206.91;;;21.47;96.53
44103;BME280;29769;42.178;24.742;2022-07-10T06:15:46;99206.06;;;21.71;95.67
44103;BME280;29769;42.178;24.742;2022-07-10T06:18:31;99204.38;;;21.70;95.83
44103;BME280;29769;42.178;24.742;2022-07-10T06:21:16;99204.25;;;21.72;95.53
44103;BME280;29769;42.178;24.742;2022-07-10T06:24:06;99204.13;;;22.00;94.38
44103;BME280;29769;42.178;24.742;2022-07-10T06:26:50;99194.41;;;21.85;93.06
44103;BME280;29769;42.178;24.742;2022-07-10T06:29:35;99205.41;;;22.07;93.69
44103;BME280;29769;42.178;24.742;2022-07-10T06:32:21;99192.75;;;22.09;93.42
44103;BME280;29769;42.178;24.742;2022-07-10T06:35:06;99199.75;;;22.12;93.15
44103;BME280;29769;42.178;24.742;2022-07-10T06:37:51;99203.69;;;22.06;92.41
44103;BME280;29769;42.178;24.742;2022-07-10T06:40:37;99206.56;;;22.29;93.35
44103;BME280;29769;42.178;24.742;2022-07-10T06:43:21;99207.94;;;22.47;91.55
44103;BME280;29769;42.178;24.742;2022-07-10T06:46:06;99203.94;;;22.65;89.75
44103;BME280;29769;42.178;24.742;2022-07-10T06:48:50;99221.22;;;22.61;90.90
44103;BME280;29769;42.178;24.742;2022-07-10T06:51:35;99214.34;;;22.82;89.19
44103;BME280;29769;42.178;24.742;2022-07-10T06:54:20;99211.25;;;23.12;87.23
44103;BME280;29769;42.178;24.742;2022-07-10T06:57:04;99202.81;;;23.40;85.51
44103;BME280;29769;42.178;24.742;2022-07-10T06:59:49;99222.28;;;23.79;85.01
44103;BME280;29769;42.178;24.742;2022-07-10T07:02:33;99213.50;;;23.88;84.77
44103;BME280;29769;42.178;24.742;2022-07-10T07:05:18;99192.13;;;23.75;80.80
44103;BME280;29769;42.178;24.742;2022-07-10T07:08:03;99201.09;;;23.63;81.08
44103;BME280;29769;42.178;24.742;2022-07-10T07:10:48;99218.41;;;23.59;84.15
44103;BME280;29769;42.178;24.742;2022-07-10T07:13:32;99207.38;;;23.75;82.70
44103;BME280;29769;42.178;24.742;2022-07-10T07:16:17;99195.06;;;23.83;81.41
44103;BME280;29769;42.178;24.742;2022-07-10T07:19:04;99192.38;;;23.83;80.91
44103;BME280;29769;42.178;24.742;2022-07-10T07:21:50;99199.28;;;23.64;82.58
44103;BME280;29769;42.178;24.742;2022-07-10T07:24:54;99200.69;;;23.91;79.98
44103;BME280;29769;42.178;24.742;2022-07-10T07:27:38;99209.50;;;23.93;79.40
44103;BME280;29769;42.178;24.742;2022-07-10T07:30:23;99204.25;;;23.92;81.16
44103;BME280;29769;42.178;24.742;2022-07-10T07:33:07;99192.22;;;23.74;81.15
44103;BME280;29769;42.178;24.742;2022-07-10T07:35:52;99187.50;;;23.88;81.82
44103;BME280;29769;42.178;24.742;2022-07-10T07:38:37;99192.03;;;23.99;79.58
44103;BME280;29769;42.178;24.742;2022-07-10T07:41:21;99194.28;;;24.27;79.61
44103;BME280;29769;42.178;24.742;2022-07-10T07:44:07;99184.25;;;24.63;78.52
44103;BME280;29769;42.178;24.742;2022-07-10T07:46:51;99171.78;;;24.84;75.23
44103;BME280;29769;42.178;24.742;2022-07-10T07:49:37;99187.84;;;25.17;75.17
44103;BME280;29769;42.178;24.742;2022-07-10T07:52:21;99187.75;;;25.08;72.74
44103;BME280;29769;42.178;24.742;2022-07-10T07:55:06;99183.38;;;25.71;72.49
44103;BME280;29769;42.178;24.742;2022-07-10T07:57:52;99178.19;;;25.47;70.73
44103;BME280;29769;42.178;24.742;2022-07-10T08:00:40;99180.34;;;25.64;70.51
44103;BME280;29769;42.178;24.742;2022-07-10T08:03:25;99183.63;;;25.67;69.46
44103;BME280;29769;42.178;24.742;2022-07-10T08:06:09;99189.47;;;25.93;69.40
44103;BME280;29769;42.178;24.742;2022-07-10T08:08:54;99183.41;;;26.22;67.59
44103;BME280;29769;42.178;24.742;2022-07-10T08:11:38;99192.88;;;25.95;65.94
44103;BME280;29769;42.178;24.742;2022-07-10T08:14:23;99189.28;;;26.06;64.78
44103;BME280;29769;42.178;24.742;2022-07-10T08:17:07;99191.63;;;25.58;64.64
44103;BME280;29769;42.178;24.742;2022-07-10T08:19:52;99185.94;;;25.93;65.84
44103;BME280;29769;42.178;24.742;2022-07-10T08:22:37;99194.53;;;25.87;65.03
44103;BME280;29769;42.178;24.742;2022-07-10T08:25:22;99198.28;;;26.46;64.11
44103;BME280;29769;42.178;24.742;2022-07-10T08:28:07;99197.94;;;26.09;61.85
44103;BME280;29769;42.178;24.742;2022-07-10T08:30:54;99186.84;;;26.64;63.01
44103;BME280;29769;42.178;24.742;2022-07-10T08:33:39;99194.16;;;26.42;61.57
44103;BME280;29769;42.178;24.742;2022-07-10T08:36:24;99195.53;;;26.67;63.31
44103;BME280;29769;42.178;24.742;2022-07-10T08:39:08;99204.78;;;27.24;62.04
44103;BME280;29769;42.178;24.742;2022-07-10T08:41:53;99192.50;;;26.91;61.45
44103;BME280;29769;42.178;24.742;2022-07-10T08:44:37;99199.25;;;26.76;63.34
44103;BME280;29769;42.178;24.742;2022-07-10T08:47:22;99208.41;;;26.54;65.59
44103;BME280;29769;42.178;24.742;2022-07-10T08:50:17;99201.06;;;26.35;66.21
44103;BME280;29769;42.178;24.742;2022-07-10T08:56:19;99207.09;;;26.48;65.88
44103;BME280;29769;42.178;24.742;2022-07-10T08:59:03;99199.50;;;26.33;66.80
44103;BME280;29769;42.178;24.742;2022-07-10T09:01:49;99205.75;;;26.33;65.84
44103;BME280;29769;42.178;24.742;2022-07-10T09:04:34;99203.91;;;25.72;67.54
44103;BME280;29769;42.178;24.742;2022-07-10T09:07:18;99212.16;;;25.70;67.15
44103;BME280;29769;42.178;24.742;2022-07-10T09:10:07;99208.66;;;25.79;67.75
44103;BME280;29769;42.178;24.742;2022-07-10T09:12:56;99210.44;;;26.10;67.81
44103;BME280;29769;42.178;24.742;2022-07-10T09:15:47;99209.84;;;26.28;67.88
44103;BME280;29769;42.178;24.742;2022-07-10T09:18:32;99208.28;;;26.25;65.81
44103;BME280;29769;42.178;24.742;2022-07-10T09:21:16;99213.69;;;26.35;67.66
44103;BME280;29769;42.178;24.742;2022-07-10T09:24:01;99223.50;;;26.15;67.46
44103;BME280;29769;42.178;24.742;2022-07-10T09:26:57;99223.44;;;26.05;67.99
44103;BME280;29769;42.178;24.742;2022-07-10T09:29:49;99220.94;;;25.72;69.86
44103;BME280;29769;42.178;24.742;2022-07-10T09:32:39;99223.50;;;25.94;71.14
44103;BME280;29769;42.178;24.742;2022-07-10T09:35:23;99217.00;;;25.76;70.35
44103;BME280;29769;42.178;24.742;2022-07-10T09:38:27;99216.94;;;25.35;71.08
44103;BME280;29769;42.178;24.742;2022-07-10T09:41:16;99216.00;;;25.45;71.81
44103;BME280;29769;42.178;24.742;2022-07-10T09:44:05;99220.50;;;25.88;71.18
44103;BME280;29769;42.178;24.742;2022-07-10T09:46:51;99216.16;;;26.38;68.12
44103;BME280;29769;42.178;24.742;2022-07-10T09:49:36;99225.16;;;26.06;66.96
44103;BME280;29769;42.178;24.742;2022-07-10T09:52:20;99218.22;;;26.55;67.01
44103;BME280;29769;42.178;24.742;2022-07-10T09:55:06;99211.53;;;26.89;65.38
44103;BME280;29769;42.178;24.742;2022-07-10T09:57:57;99218.03;;;26.47;64.71
44103;BME280;29769;42.178;24.742;2022-07-10T10:00:42;99220.28;;;26.82;63.71
44103;BME280;29769;42.178;24.742;2022-07-10T10:03:33;99219.38;;;26.92;63.99
44103;BME280;29769;42.178;24.742;2022-07-10T10:06:19;99216.66;;;26.62;65.04
44103;BME280;29769;42.178;24.742;2022-07-10T10:09:08;99218.38;;;26.93;63.85
44103;BME280;29769;42.178;24.742;2022-07-10T10:11:57;99209.75;;;26.69;62.62
44103;BME280;29769;42.178;24.742;2022-07-10T10:14:43;99208.09;;;26.47;63.91
44103;BME280;29769;42.178;24.742;2022-07-10T10:17:28;99213.69;;;26.35;65.20
44103;BME280;29769;42.178;24.742;2022-07-10T10:20:13;99209.63;;;26.80;65.40
44103;BME280;29769;42.178;24.742;2022-07-10T10:23:21;99201.41;;;26.82;63.63
44103;BME280;29769;42.178;24.742;2022-07-10T10:26:06;99201.69;;;27.76;61.10
44103;BME280;29769;42.178;24.742;2022-07-10T10:28:52;99197.53;;;28.20;56.57
44103;BME280;29769;42.178;24.742;2022-07-10T10:31:38;99188.94;;;28.71;53.16
44103;BME280;29769;42.178;24.742;2022-07-10T10:34:43;99190.09;;;28.32;51.71
44103;BME280;29769;42.178;24.742;2022-07-10T10:37:32;99189.72;;;28.54;49.59
44103;BME280;29769;42.178;24.742;2022-07-10T10:40:30;99178.47;;;29.31;46.21
44103;BME280;29769;42.178;24.742;2022-07-10T10:46:01;99169.47;;;30.35;43.16
44103;BME280;29769;42.178;24.742;2022-07-10T10:49:07;99171.81;;;31.72;38.58
44103;BME280;29769;42.178;24.742;2022-07-10T10:51:59;99170.50;;;32.56;38.05
44103;BME280;29769;42.178;24.742;2022-07-10T10:57:41;99160.22;;;37.23;28.39
44103;BME280;29769;42.178;24.742;2022-07-10T11:00:32;99162.75;;;38.89;25.83
44103;BME280;29769;42.178;24.742;2022-07-10T11:03:22;99155.16;;;39.29;24.21
44103;BME280;29769;42.178;24.742;2022-07-10T11:06:08;99154.50;;;40.82;22.05
44103;BME280;29769;42.178;24.742;2022-07-10T11:09:03;99145.69;;;39.56;21.90
44103;BME280;29769;42.178;24.742;2022-07-10T11:12:05;99147.13;;;40.15;21.97
44103;BME280;29769;42.178;24.742;2022-07-10T11:14:50;99136.31;;;39.64;23.42
44103;BME280;29769;42.178;24.742;2022-07-10T11:17:37;99130.28;;;40.29;22.20
44103;BME280;29769;42.178;24.742;2022-07-10T11:20:22;99133.94;;;40.41;21.27
44103;BME280;29769;42.178;24.742;2022-07-10T11:26:04;99122.97;;;41.79;19.82
44103;BME280;29769;42.178;24.742;2022-07-10T11:28:54;99126.38;;;42.39;19.39
44103;BME280;29769;42.178;24.742;2022-07-10T11:31:39;99125.03;;;43.17;18.45
44103;BME280;29769;42.178;24.742;2022-07-10T11:34:35;99119.31;;;43.07;18.08
44103;BME280;29769;42.178;24.742;2022-07-10T11:37:21;99121.97;;;43.92;17.44
44103;BME280;29769;42.178;24.742;2022-07-10T11:40:10;99110.03;;;42.61;18.46
44103;BME280;29769;42.178;24.742;2022-07-10T11:42:55;99110.31;;;43.90;18.12
44103;BME280;29769;42.178;24.742;2022-07-10T11:45:40;99103.88;;;44.61;17.48
44103;BME280;29769;42.178;24.742;2022-07-10T11:48:25;99108.94;;;44.09;18.07
44103;BME280;29769;42.178;24.742;2022-07-10T11:51:23;99102.53;;;44.25;17.03
44103;BME280;29769;42.178;24.742;2022-07-10T11:54:10;99102.44;;;43.08;18.59
44103;BME280;29769;42.178;24.742;2022-07-10T11:57:03;99106.50;;;41.72;19.15
44103;BME280;29769;42.178;24.742;2022-07-10T11:59:48;99099.34;;;40.82;20.25
44103;BME280;29769;42.178;24.742;2022-07-10T12:02:32;99106.00;;;40.38;20.20
44103;BME280;29769;42.178;24.742;2022-07-10T12:08:43;99096.53;;;38.90;22.22
44103;BME280;29769;42.178;24.742;2022-07-10T12:11:28;99090.50;;;38.68;22.40
44103;BME280;29769;42.178;24.742;2022-07-10T12:14:17;99085.78;;;38.76;21.81
44103;BME280;29769;42.178;24.742;2022-07-10T12:17:10;99085.53;;;39.60;21.72
44103;BME280;29769;42.178;24.742;2022-07-10T12:19:54;99084.81;;;40.20;21.41
44103;BME280;29769;42.178;24.742;2022-07-10T12:22:40;99079.34;;;40.50;21.58
44103;BME280;29769;42.178;24.742;2022-07-10T12:25:25;99077.66;;;38.56;22.70
44103;BME280;29769;42.178;24.742;2022-07-10T12:28:10;99075.28;;;39.10;22.21
44103;BME280;29769;42.178;24.742;2022-07-10T12:30:56;99075.25;;;40.16;21.57
44103;BME280;29769;42.178;24.742;2022-07-10T12:33:41;99071.25;;;39.44;22.05
44103;BME280;29769;42.178;24.742;2022-07-10T12:36:25;99068.44;;;38.88;22.36
44103;BME280;29769;42.178;24.742;2022-07-10T12:39:10;99065.34;;;39.41;22.07
44103;BME280;29769;42.178;24.742;2022-07-10T12:42:02;99063.44;;;38.65;21.77
44103;BME280;29769;42.178;24.742;2022-07-10T12:44:48;99059.41;;;38.68;22.38
44103;BME280;29769;42.178;24.742;2022-07-10T12:47:42;99051.06;;;38.30;23.15
44103;BME280;29769;42.178;24.742;2022-07-10T12:50:27;99052.41;;;37.49;23.75
44103;BME280;29769;42.178;24.742;2022-07-10T12:53:12;99057.47;;;35.34;25.81
44103;BME280;29769;42.178;24.742;2022-07-10T12:55:58;99056.25;;;35.00;26.51
44103;BME280;29769;42.178;24.742;2022-07-10T12:58:43;99055.00;;;35.03;26.57
44103;BME280;29769;42.178;24.742;2022-07-10T13:01:29;99041.59;;;35.50;25.92
44103;BME280;29769;42.178;24.742;2022-07-10T13:04:26;99054.47;;;34.71;27.69
44103;BME280;29769;42.178;24.742;2022-07-10T13:07:14;99048.34;;;34.55;27.86
44103;BME280;29769;42.178;24.742;2022-07-10T13:09:59;99045.00;;;34.89;27.67
44103;BME280;29769;42.178;24.742;2022-07-10T13:12:44;99039.06;;;33.90;28.63
44103;BME280;29769;42.178;24.742;2022-07-10T13:15:29;99041.13;;;32.91;29.28
44103;BME280;29769;42.178;24.742;2022-07-10T13:18:15;99040.16;;;32.14;30.43
44103;BME280;29769;42.178;24.742;2022-07-10T13:21:02;99040.59;;;31.78;30.73
44103;BME280;29769;42.178;24.742;2022-07-10T13:23:48;99040.94;;;31.51;31.63
44103;BME280;29769;42.178;24.742;2022-07-10T13:26:32;99041.09;;;31.82;31.91
44103;BME280;29769;42.178;24.742;2022-07-10T13:29:17;99034.00;;;31.65;31.23
44103;BME280;29769;42.178;24.742;2022-07-10T13:32:01;99035.34;;;31.69;30.95
44103;BME280;29769;42.178;24.742;2022-07-10T13:34:46;99034.84;;;31.65;31.29
44103;BME280;29769;42.178;24.742;2022-07-10T13:37:31;99032.47;;;31.06;32.17
44103;BME280;29769;42.178;24.742;2022-07-10T13:40:15;99030.94;;;31.03;32.38
44103;BME280;29769;42.178;24.742;2022-07-10T13:43:00;99032.16;;;31.25;31.93
44103;BME280;29769;42.178;24.742;2022-07-10T13:45:45;99035.53;;;31.43;32.07
44103;BME280;29769;42.178;24.742;2022-07-10T13:48:29;99030.66;;;32.80;29.95
44103;BME280;29769;42.178;24.742;2022-07-10T13:51:15;99012.47;;;32.95;28.76
44103;BME280;29769;42.178;24.742;2022-07-10T13:53:59;99013.66;;;33.90;28.41
44103;BME280;29769;42.178;24.742;2022-07-10T13:56:44;99012.09;;;34.61;26.83
44103;BME280;29769;42.178;24.742;2022-07-10T13:59:29;99014.16;;;34.23;27.25
44103;BME280;29769;42.178;24.742;2022-07-10T14:02:13;99021.94;;;34.76;26.22
44103;BME280;29769;42.178;24.742;2022-07-10T14:04:58;99017.88;;;34.36;27.16
44103;BME280;29769;42.178;24.742;2022-07-10T14:07:43;99013.34;;;34.44;26.91
44103;BME280;29769;42.178;24.742;2022-07-10T14:10:28;99011.94;;;33.22;28.39
44103;BME280;29769;42.178;24.742;2022-07-10T14:13:12;99015.56;;;32.38;30.49
44103;BME280;29769;42.178;24.742;2022-07-10T14:15:57;99024.97;;;31.48;32.10
44103;BME280;29769;42.178;24.742;2022-07-10T14:18:42;99026.34;;;31.04;32.60
44103;BME280;29769;42.178;24.742;2022-07-10T14:21:28;99027.97;;;30.56;34.00
44103;BME280;29769;42.178;24.742;2022-07-10T14:24:13;99023.34;;;29.81;35.25
44103;BME280;29769;42.178;24.742;2022-07-10T14:26:57;99021.78;;;29.70;36.15
44103;BME280;29769;42.178;24.742;2022-07-10T14:29:42;99030.47;;;29.48;36.67
44103;BME280;29769;42.178;24.742;2022-07-10T14:32:27;99023.97;;;29.23;36.91
44103;BME280;29769;42.178;24.742;2022-07-10T14:35:11;99022.19;;;29.14;37.01
44103;BME280;29769;42.178;24.742;2022-07-10T14:37:55;99025.94;;;28.95;37.68